createdAt,value
2019-05-01T00:03:02.873Z,14.10
2019-05-01T00:08:02.674Z,13.63
2019-05-01T00:13:02.375Z,10.80
2019-05-01T00:18:02.273Z,10.97
2019-05-01T00:23:01.810Z,11.87
2019-05-01T00:28:01.355Z,12.63
2019-05-01T00:33:00.917Z,14.47
2019-05-01T00:38:00.483Z,14.20
2019-05-01T00:43:00.047Z,12.30
2019-05-01T00:47:59.588Z,9.20
2019-05-01T00:52:59.197Z,10.60
2019-05-01T00:58:06.478Z,15.53
2019-05-01T01:03:06.111Z,10.77
2019-05-01T01:08:05.662Z,12.77
2019-05-01T01:13:05.492Z,17.33
2019-05-01T01:18:05.315Z,13.30
2019-05-01T01:23:05.046Z,15.13
2019-05-01T01:28:04.684Z,14.70
2019-05-01T01:33:04.319Z,21.07
2019-05-01T01:38:04.124Z,23.67
2019-05-01T01:43:22.130Z,22.03
2019-05-01T01:48:21.955Z,20.93
2019-05-01T01:53:22.786Z,22.07
2019-05-01T01:58:22.985Z,24.07
2019-05-01T02:03:24.431Z,27.47
2019-05-01T02:08:24.059Z,22.63
2019-05-01T02:13:23.710Z,26.20
2019-05-01T02:18:23.266Z,28.07
2019-05-01T02:23:22.830Z,25.37
2019-05-01T02:28:35.599Z,26.13
2019-05-01T02:33:35.776Z,27.77
2019-05-01T02:38:37.710Z,24.07
2019-05-01T02:43:40.363Z,26.57
2019-05-01T02:48:44.538Z,26.03
2019-05-01T02:53:45.575Z,31.23
2019-05-01T02:58:47.080Z,29.53
2019-05-01T03:03:47.793Z,32.03
2019-05-01T03:08:48.081Z,30.53
2019-05-01T03:13:48.400Z,30.53
2019-05-01T03:18:52.336Z,31.37
2019-05-01T03:24:03.191Z,40.93
2019-05-01T03:29:03.258Z,33.40
2019-05-01T03:34:02.975Z,35.30
2019-05-01T03:39:05.148Z,35.73
2019-05-01T03:44:05.663Z,33.20
2019-05-01T03:49:05.752Z,31.77
2019-05-01T03:54:05.676Z,44.40
2019-05-01T03:59:05.503Z,40.53
2019-05-01T04:04:08.938Z,38.73
2019-05-01T04:09:08.690Z,39.50
2019-05-01T04:14:08.586Z,41.47
2019-05-01T04:19:08.415Z,44.53
2019-05-01T04:24:08.331Z,39.43
2019-05-01T04:29:27.211Z,41.17
2019-05-01T04:34:49.763Z,47.10
2019-05-01T04:39:49.462Z,42.97
2019-05-01T04:44:49.449Z,52.30
2019-05-01T04:49:49.583Z,47.67
2019-05-01T04:54:49.412Z,52.90
2019-05-01T04:59:49.330Z,54.90
2019-05-01T05:04:49.143Z,52.27
2019-05-01T05:09:48.775Z,57.47
2019-05-01T05:14:52.795Z,58.87
2019-05-01T05:19:52.811Z,64.40
2019-05-01T05:24:53.638Z,55.97
2019-05-01T05:29:56.918Z,58.70
2019-05-01T05:34:59.104Z,61.77
2019-05-01T05:40:00.982Z,61.17
2019-05-01T05:45:00.732Z,66.43
2019-05-01T05:50:00.838Z,62.77
2019-05-01T05:55:21.613Z,60.07
2019-05-01T06:00:39.686Z,65.27
2019-05-01T06:05:50.198Z,69.87
2019-05-01T06:11:10.180Z,62.40
2019-05-01T06:16:17.296Z,58.07
2019-05-01T06:21:22.270Z,62.30
2019-05-01T06:26:32.011Z,66.27
2019-05-01T06:31:31.664Z,71.20
2019-05-01T06:36:31.684Z,58.43
2019-05-01T06:41:42.287Z,63.03
2019-05-01T06:46:50.551Z,64.83
2019-05-01T06:51:53.732Z,78.50
2019-05-01T06:56:56.577Z,66.17
2019-05-01T07:01:58.306Z,66.90
2019-05-01T07:07:01.934Z,70.40
2019-05-01T07:12:05.917Z,67.13
2019-05-01T07:17:08.888Z,68.63
2019-05-01T07:22:09.372Z,64.07
2019-05-01T07:27:11.993Z,68.00
2019-05-01T07:32:15.059Z,66.20
2019-05-01T07:37:14.187Z,60.50
2019-05-01T07:42:30.514Z,62.97
2019-05-01T07:47:39.369Z,68.53
2019-05-01T07:52:40.274Z,70.20
2019-05-01T07:57:41.288Z,69.40
2019-05-01T08:02:40.934Z,70.43
2019-05-01T08:07:41.453Z,68.60
2019-05-01T08:12:41.054Z,63.10
2019-05-01T08:17:42.346Z,64.13
2019-05-01T08:22:41.914Z,67.57
2019-05-01T08:28:00.641Z,60.23
2019-05-01T08:33:32.409Z,66.27
2019-05-01T08:38:34.297Z,54.80
2019-05-01T08:43:34.303Z,67.73
2019-05-01T08:48:38.352Z,60.73
2019-05-01T08:53:37.935Z,58.53
2019-05-01T08:58:37.486Z,57.87
2019-05-01T09:03:37.063Z,55.57
2019-05-01T09:08:36.630Z,56.90
2019-05-01T09:13:36.282Z,48.63
2019-05-01T09:18:38.737Z,50.17
2019-05-01T09:23:38.486Z,44.70
2019-05-01T09:28:41.786Z,46.87
2019-05-01T09:33:42.338Z,39.47
2019-05-01T09:38:41.997Z,40.23
2019-05-01T09:43:41.585Z,38.63
2019-05-01T09:48:41.353Z,43.30
2019-05-01T09:53:50.899Z,37.50
2019-05-01T09:58:50.503Z,39.97
2019-05-01T10:03:54.588Z,40.30
2019-05-01T10:08:51.482Z,33.93
2019-05-01T10:13:53.632Z,35.27
2019-05-01T10:18:52.474Z,34.93
2019-05-01T10:23:52.900Z,39.60
2019-05-01T10:29:08.256Z,39.00
2019-05-01T10:34:18.618Z,33.33
2019-05-01T10:39:19.736Z,40.03
2019-05-01T10:44:19.505Z,37.60
2019-05-01T10:49:19.053Z,33.37
2019-05-01T10:54:18.631Z,29.90
2019-05-01T10:59:18.206Z,38.37
2019-05-01T11:04:17.879Z,32.93
2019-05-01T11:09:17.440Z,29.30
2019-05-01T11:14:17.095Z,25.67
2019-05-01T11:19:16.826Z,33.03
2019-05-01T11:24:16.373Z,27.60
2019-05-01T11:29:16.022Z,25.40
2019-05-01T11:34:34.386Z,26.43
2019-05-01T11:39:44.334Z,23.53
2019-05-01T11:44:43.913Z,24.50
2019-05-01T11:49:43.484Z,21.17
2019-05-01T11:54:43.035Z,21.53
2019-05-01T11:59:42.606Z,22.20
2019-05-01T12:04:42.172Z,24.47
2019-05-01T12:09:41.853Z,23.73
2019-05-01T12:14:41.427Z,25.43
2019-05-01T12:19:41.155Z,20.33
2019-05-01T12:24:41.116Z,19.50
2019-05-01T12:29:41.087Z,22.40
2019-05-01T12:34:40.743Z,22.27
2019-05-01T12:39:40.337Z,20.17
2019-05-01T12:44:39.899Z,27.10
2019-05-01T12:49:39.464Z,21.53
2019-05-01T12:54:45.719Z,18.23
2019-05-01T12:59:45.454Z,24.77
2019-05-01T13:04:45.009Z,26.40
2019-05-01T13:09:44.683Z,19.17
2019-05-01T13:14:44.287Z,16.63
2019-05-01T13:19:43.841Z,22.70
2019-05-01T13:24:50.243Z,16.33
2019-05-01T13:29:55.378Z,15.47
2019-05-01T13:34:54.919Z,17.90
2019-05-01T13:39:54.478Z,15.80
2019-05-01T13:44:54.022Z,11.80
2019-05-01T13:49:53.572Z,12.70
2019-05-01T13:54:53.197Z,15.67
2019-05-01T13:59:52.751Z,12.13
2019-05-01T14:04:53.265Z,14.50
2019-05-01T14:09:52.875Z,13.10
2019-05-01T14:14:52.438Z,10.00
2019-05-01T14:20:01.789Z,11.10
2019-05-01T14:25:03.238Z,7.63
2019-05-01T14:30:03.009Z,10.97
2019-05-01T14:35:05.090Z,10.03
2019-05-01T14:40:05.314Z,7.80
2019-05-01T14:45:06.509Z,5.63
2019-05-01T14:50:06.646Z,10.40
2019-05-01T14:55:06.645Z,7.60
2019-05-01T15:00:06.783Z,6.87
2019-05-01T15:05:07.063Z,7.53
2019-05-01T15:10:07.134Z,7.17
2019-05-01T15:15:24.793Z,6.03
2019-05-01T15:20:24.329Z,5.43
2019-05-01T15:25:25.299Z,7.47
2019-05-01T15:30:25.172Z,8.27
2019-05-01T15:35:24.735Z,9.17
2019-05-01T15:40:30.493Z,9.03
2019-05-01T15:45:30.069Z,4.63
2019-05-01T15:50:29.666Z,5.50
2019-05-01T15:55:29.331Z,4.13
2019-05-01T16:00:28.896Z,4.53
2019-05-01T16:05:28.461Z,4.53
2019-05-01T16:10:32.640Z,5.00
2019-05-01T16:15:33.722Z,4.87
2019-05-01T16:20:33.351Z,5.60
2019-05-01T16:25:33.019Z,4.67
2019-05-01T16:30:32.744Z,3.10
2019-05-01T16:35:32.299Z,3.77
2019-05-01T16:40:43.477Z,6.03
2019-05-01T16:45:43.038Z,4.77
2019-05-01T16:50:42.655Z,4.57
2019-05-01T16:55:44.077Z,4.90
2019-05-01T17:00:59.986Z,5.30
2019-05-01T17:06:10.758Z,3.70
2019-05-01T17:11:10.840Z,4.23
2019-05-01T17:16:10.407Z,4.17
2019-05-01T17:21:10.022Z,4.37
2019-05-01T17:26:09.679Z,4.53
2019-05-01T17:31:09.236Z,6.17
2019-05-01T17:36:08.863Z,7.20
2019-05-01T17:41:08.447Z,20.17
2019-05-01T17:46:10.859Z,3.30
2019-05-01T17:51:10.334Z,3.77
2019-05-01T17:56:14.715Z,8.03
2019-05-01T18:01:45.710Z,4.57
2019-05-01T18:06:47.935Z,3.07
2019-05-01T18:11:52.296Z,8.27
2019-05-01T18:16:49.094Z,3.50
2019-05-01T18:21:55.726Z,5.53
2019-05-01T18:27:05.468Z,5.97
2019-05-01T18:32:08.177Z,7.67
2019-05-01T18:37:16.319Z,4.33
2019-05-01T18:42:15.961Z,4.50
2019-05-01T18:47:15.779Z,3.70
2019-05-01T18:52:15.711Z,4.77
2019-05-01T18:57:15.273Z,4.50
2019-05-01T19:02:14.896Z,5.80
2019-05-01T19:07:14.466Z,4.07
2019-05-01T19:12:15.475Z,5.30
2019-05-01T19:17:15.018Z,4.40
2019-05-01T19:22:14.624Z,5.63
2019-05-01T19:27:18.771Z,6.93
2019-05-01T19:32:16.554Z,7.00
2019-05-01T19:37:16.753Z,14.47
2019-05-01T19:42:21.540Z,6.33
2019-05-01T19:47:19.641Z,9.43
2019-05-01T19:52:19.348Z,7.33
2019-05-01T19:57:19.117Z,10.00
2019-05-01T20:02:22.131Z,8.47
2019-05-01T20:07:21.598Z,9.47
2019-05-01T20:12:22.402Z,10.50
2019-05-01T20:17:22.905Z,15.73
2019-05-01T20:22:22.588Z,10.33
2019-05-01T20:27:22.226Z,10.70
2019-05-01T20:32:26.204Z,9.33
2019-05-01T20:37:23.154Z,10.87
2019-05-01T20:42:23.067Z,11.93
2019-05-01T20:47:34.500Z,9.30
2019-05-01T20:52:24.516Z,7.60
2019-05-01T20:57:28.830Z,9.13
2019-05-01T21:02:28.539Z,8.53
2019-05-01T21:07:32.171Z,8.03
2019-05-01T21:12:32.936Z,9.10
2019-05-01T21:17:34.786Z,11.40
2019-05-01T21:22:34.442Z,8.13
2019-05-01T21:27:34.478Z,9.63
2019-05-01T21:32:34.094Z,10.60
2019-05-01T21:37:33.649Z,7.10
2019-05-01T21:42:33.427Z,11.07
2019-05-01T21:47:33.500Z,7.70
2019-05-01T21:52:33.369Z,6.97
2019-05-01T21:57:35.631Z,10.70
2019-05-01T22:02:35.014Z,12.00
2019-05-01T22:07:35.824Z,12.00
2019-05-01T22:12:35.449Z,8.77
2019-05-01T22:17:59.907Z,10.47
2019-05-01T22:23:04.282Z,10.20
2019-05-01T22:28:13.974Z,12.47
2019-05-01T22:33:11.323Z,7.77
2019-05-01T22:38:11.020Z,11.27
2019-05-01T22:43:10.572Z,11.90
2019-05-01T22:48:10.111Z,13.53
2019-05-01T22:53:13.118Z,18.20
2019-05-01T22:58:11.440Z,17.27
2019-05-01T23:03:17.760Z,17.93
2019-05-01T23:08:17.517Z,14.47
2019-05-01T23:13:17.248Z,14.97
2019-05-01T23:18:17.347Z,14.87
2019-05-01T23:23:16.982Z,18.70
2019-05-01T23:28:17.601Z,16.40
2019-05-01T23:33:17.164Z,18.03
2019-05-01T23:38:16.736Z,19.30
2019-05-01T23:43:16.296Z,18.17
2019-05-01T23:48:15.850Z,19.90
2019-05-01T23:53:15.476Z,23.87
2019-05-01T23:58:15.058Z,15.63
